sensor_id;sensor_type;location;lat;lon;timestamp;pressure;altitude;pressure_sealevel;temperature;humidity
22104;BME280;11218;48.886;9.426;2023-02-20T00:02:18;99134.78;;;8.30;84.75
22104;BME280;11218;48.886;9.426;2023-02-20T00:04:49;99137.66;;;8.28;84.59
22104;BME280;11218;48.886;9.426;2023-02-20T00:07:17;99127.75;;;8.29;84.94
22104;BME280;11218;48.886;9.426;2023-02-20T00:09:45;99134.19;;;8.34;84.41
22104;BME280;11218;48.886;9.426;2023-02-20T00:12:14;99127.97;;;8.27;84.35
22104;BME280;11218;48.886;9.426;2023-02-20T00:14:42;99115.59;;;8.26;85.22
22104;BME280;11218;48.886;9.426;2023-02-20T00:17:11;99124.25;;;8.28;84.70
22104;BME280;11218;48.886;9.426;2023-02-20T00:19:39;99111.66;;;8.22;85.23
22104;BME280;11218;48.886;9.426;2023-02-20T00:22:07;99108.78;;;8.23;85.06
22104;BME280;11218;48.886;9.426;2023-02-20T00:24:35;99116.81;;;8.23;84.70
22104;BME280;11218;48.886;9.426;2023-02-20T00:27:04;99116.03;;;8.16;85.42
22104;BME280;11218;48.886;9.426;2023-02-20T00:29:33;99118.09;;;8.14;85.21
22104;BME280;11218;48.886;9.426;2023-02-20T00:32:02;99115.41;;;8.14;84.89
22104;BME280;11218;48.886;9.426;2023-02-20T00:34:31;99123.88;;;8.11;84.75
22104;BME280;11218;48.886;9.426;2023-02-20T00:36:59;99123.25;;;8.09;85.65
22104;BME280;11218;48.886;9.426;2023-02-20T00:39:27;99134.19;;;8.08;85.90
22104;BME280;11218;48.886;9.426;2023-02-20T00:41:55;99136.66;;;8.09;85.45
22104;BME280;11218;48.886;9.426;2023-02-20T00:44:25;99152.53;;;8.04;85.75
22104;BME280;11218;48.886;9.426;2023-02-20T00:46:54;99133.78;;;7.98;85.99
22104;BME280;11218;48.886;9.426;2023-02-20T00:49:22;99145.53;;;7.97;85.71
22104;BME280;11218;48.886;9.426;2023-02-20T00:51:50;99149.03;;;7.97;86.19
22104;BME280;11218;48.886;9.426;2023-02-20T00:54:18;99143.88;;;7.96;86.31
22104;BME280;11218;48.886;9.426;2023-02-20T00:56:46;99147.59;;;7.95;85.93
22104;BME280;11218;48.886;9.426;2023-02-20T00:59:15;99141.81;;;7.91;86.88
22104;BME280;11218;48.886;9.426;2023-02-20T01:01:43;99139.94;;;7.91;86.05
22104;BME280;11218;48.886;9.426;2023-02-20T01:04:12;99135.63;;;7.90;86.78
22104;BME280;11218;48.886;9.426;2023-02-20T01:06:40;99140.38;;;7.88;87.25
22104;BME280;11218;48.886;9.426;2023-02-20T01:09:08;99134.19;;;7.88;87.23
22104;BME280;11218;48.886;9.426;2023-02-20T01:11:37;99145.94;;;7.87;86.15
22104;BME280;11218;48.886;9.426;2023-02-20T01:14:05;99132.31;;;7.88;86.32
22104;BME280;11218;48.886;9.426;2023-02-20T01:16:33;99134.78;;;7.83;86.64
22104;BME280;11218;48.886;9.426;2023-02-20T01:19:02;99127.56;;;7.84;86.89
22104;BME280;11218;48.886;9.426;2023-02-20T01:21:31;99125.94;;;7.83;86.34
22104;BME280;11218;48.886;9.426;2023-02-20T01:23:59;99122.22;;;7.84;86.03
22104;BME280;11218;48.886;9.426;2023-02-20T01:26:27;99123.88;;;7.85;85.19
22104;BME280;11218;48.886;9.426;2023-02-20T01:28:55;99132.72;;;7.79;85.25
22104;BME280;11218;48.886;9.426;2023-02-20T01:31:23;99119.13;;;7.80;85.87
22104;BME280;11218;48.886;9.426;2023-02-20T01:33:52;99121.19;;;7.78;85.71
22104;BME280;11218;48.886;9.426;2023-02-20T01:36:20;99122.22;;;7.77;85.57
22104;BME280;11218;48.886;9.426;2023-02-20T01:38:50;99124.06;;;7.70;84.94
22104;BME280;11218;48.886;9.426;2023-02-20T01:41:18;99123.00;;;7.65;85.30
22104;BME280;11218;48.886;9.426;2023-02-20T01:43:46;99130.22;;;7.64;85.77
22104;BME280;11218;48.886;9.426;2023-02-20T01:46:43;99123.41;;;7.62;86.07
22104;BME280;11218;48.886;9.426;2023-02-20T01:49:16;99133.72;;;7.58;86.73
22104;BME280;11218;48.886;9.426;2023-02-20T01:51:47;99125.66;;;7.51;86.10
22104;BME280;11218;48.886;9.426;2023-02-20T01:54:21;99128.53;;;7.50;86.09
22104;BME280;11218;48.886;9.426;2023-02-20T01:56:53;99126.47;;;7.45;86.02
22104;BME280;11218;48.886;9.426;2023-02-20T01:59:22;99111.66;;;7.36;86.65
22104;BME280;11218;48.886;9.426;2023-02-20T02:01:52;99123.19;;;7.43;86.53
22104;BME280;11218;48.886;9.426;2023-02-20T02:04:20;99112.47;;;7.37;86.02
22104;BME280;11218;48.886;9.426;2023-02-20T02:06:51;99104.00;;;7.27;86.44
22104;BME280;11218;48.886;9.426;2023-02-20T02:09:26;99109.38;;;7.33;86.07
22104;BME280;11218;48.886;9.426;2023-02-20T02:12:00;99099.25;;;7.22;86.15
22104;BME280;11218;48.886;9.426;2023-02-20T02:14:28;99113.25;;;7.24;86.24
22104;BME280;11218;48.886;9.426;2023-02-20T02:17:22;99096.34;;;7.17;86.66
22104;BME280;11218;48.886;9.426;2023-02-20T02:20:18;99090.19;;;7.16;87.20
22104;BME280;11218;48.886;9.426;2023-02-20T02:26:05;99100.47;;;7.13;86.70
22104;BME280;11218;48.886;9.426;2023-02-20T02:29:12;99101.06;;;7.08;86.84
22104;BME280;11218;48.886;9.426;2023-02-20T02:32:03;99104.97;;;7.06;85.92
22104;BME280;11218;48.886;9.426;2023-02-20T02:37:54;99089.94;;;7.05;85.86
22104;BME280;11218;48.886;9.426;2023-02-20T02:40:27;99097.34;;;7.03;85.03
22104;BME280;11218;48.886;9.426;2023-02-20T02:43:08;99102.25;;;6.99;85.63
22104;BME280;11218;48.886;9.426;2023-02-20T02:45:43;99102.66;;;6.96;86.13
22104;BME280;11218;48.886;9.426;2023-02-20T02:48:16;99101.84;;;6.96;86.06
22104;BME280;11218;48.886;9.426;2023-02-20T02:50:48;99101.84;;;6.96;85.47
22104;BME280;11218;48.886;9.426;2023-02-20T02:53:20;99097.28;;;6.89;86.19
22104;BME280;11218;48.886;9.426;2023-02-20T02:55:48;99097.09;;;6.91;85.72
22104;BME280;11218;48.886;9.426;2023-02-20T02:58:17;99092.75;;;6.90;85.94
22104;BME280;11218;48.886;9.426;2023-02-20T03:00:49;99095.84;;;6.87;86.37
22104;BME280;11218;48.886;9.426;2023-02-20T03:03:24;99091.09;;;6.89;86.24
22104;BME280;11218;48.886;9.426;2023-02-20T03:05:59;99088.00;;;6.85;86.16
22104;BME280;11218;48.886;9.426;2023-02-20T03:08:32;99084.09;;;6.88;86.36
22104;BME280;11218;48.886;9.426;2023-02-20T03:11:05;99081.19;;;6.83;86.23
22104;BME280;11218;48.886;9.426;2023-02-20T03:13:36;99098.31;;;6.88;86.06
22104;BME280;11218;48.886;9.426;2023-02-20T03:16:27;99080.63;;;6.94;86.57
22104;BME280;11218;48.886;9.426;2023-02-20T03:19:00;99082.06;;;6.90;85.76
22104;BME280;11218;48.886;9.426;2023-02-20T03:21:31;99089.06;;;6.91;86.58
22104;BME280;11218;48.886;9.426;2023-02-20T03:24:04;99101.22;;;6.93;85.39
22104;BME280;11218;48.886;9.426;2023-02-20T03:26:34;99097.91;;;6.91;86.25
22104;BME280;11218;48.886;9.426;2023-02-20T03:29:06;99092.97;;;6.95;85.96
22104;BME280;11218;48.886;9.426;2023-02-20T03:31:42;99092.97;;;6.95;86.75
22104;BME280;11218;48.886;9.426;2023-02-20T03:34:15;99090.72;;;6.92;86.87
22104;BME280;11218;48.886;9.426;2023-02-20T03:37:05;99096.25;;;6.90;86.19
22104;BME280;11218;48.886;9.426;2023-02-20T03:39:59;99097.09;;;6.91;86.31
22104;BME280;11218;48.886;9.426;2023-02-20T03:42:49;99102.84;;;6.88;86.91
22104;BME280;11218;48.886;9.426;2023-02-20T03:45:37;99100.16;;;6.88;86.88
22104;BME280;11218;48.886;9.426;2023-02-20T03:48:09;99098.31;;;6.88;87.09
22104;BME280;11218;48.886;9.426;2023-02-20T03:50:39;99105.13;;;6.91;86.96
22104;BME280;11218;48.886;9.426;2023-02-20T03:53:25;99095.00;;;6.86;87.70
22104;BME280;11218;48.886;9.426;2023-02-20T03:55:59;99096.44;;;6.82;87.07
22104;BME280;11218;48.886;9.426;2023-02-20T03:58:30;99105.72;;;6.86;87.07
22104;BME280;11218;48.886;9.426;2023-02-20T04:01:02;99104.88;;;6.86;86.97
22104;BME280;11218;48.886;9.426;2023-02-20T04:03:35;99093.31;;;6.79;87.48
22104;BME280;11218;48.886;9.426;2023-02-20T04:06:06;99087.56;;;6.82;87.41
22104;BME280;11218;48.886;9.426;2023-02-20T04:08:38;99085.72;;;6.82;86.59
22104;BME280;11218;48.886;9.426;2023-02-20T04:11:13;99092.13;;;6.88;86.10
22104;BME280;11218;48.886;9.426;2023-02-20T04:13:43;99089.66;;;6.86;87.12
22104;BME280;11218;48.886;9.426;2023-02-20T04:16:13;99076.91;;;6.95;86.09
22104;BME280;11218;48.886;9.426;2023-02-20T04:18:41;99088.03;;;6.92;86.13
22104;BME280;11218;48.886;9.426;2023-02-20T04:21:15;99076.91;;;6.95;86.63
22104;BME280;11218;48.886;9.426;2023-02-20T04:23:49;99073.44;;;6.95;85.90
22104;BME280;11218;48.886;9.426;2023-02-20T04:26:20;99070.75;;;6.95;87.06
22104;BME280;11218;48.886;9.426;2023-02-20T04:28:50;99079.81;;;6.93;85.92
22104;BME280;11218;48.886;9.426;2023-02-20T04:31:20;99071.56;;;6.95;86.52
22104;BME280;11218;48.886;9.426;2023-02-20T04:33:49;99067.88;;;6.96;85.68
22104;BME280;11218;48.886;9.426;2023-02-20T04:36:17;99073.03;;;6.98;85.83
22104;BME280;11218;48.886;9.426;2023-02-20T04:38:45;99065.00;;;6.98;86.44
22104;BME280;11218;48.886;9.426;2023-02-20T04:41:14;99062.72;;;6.95;85.90
22104;BME280;11218;48.886;9.426;2023-02-20T04:43:44;99066.81;;;6.90;86.93
22104;BME280;11218;48.886;9.426;2023-02-20T04:46:12;99061.03;;;6.87;86.33
22104;BME280;11218;48.886;9.426;2023-02-20T04:48:41;99071.75;;;6.87;86.60
22104;BME280;11218;48.886;9.426;2023-02-20T04:51:09;99085.13;;;6.87;86.53
22104;BME280;11218;48.886;9.426;2023-02-20T04:53:37;99073.78;;;6.78;86.25
22104;BME280;11218;48.886;9.426;2023-02-20T04:56:06;99091.91;;;6.83;86.37
22104;BME280;11218;48.886;9.426;2023-02-20T04:58:34;99085.53;;;6.84;85.66
22104;BME280;11218;48.886;9.426;2023-02-20T05:01:04;99083.88;;;6.83;86.57
22104;BME280;11218;48.886;9.426;2023-02-20T05:03:32;99090.25;;;6.82;86.71
22104;BME280;11218;48.886;9.426;2023-02-20T05:06:00;99080.78;;;6.79;86.50
22104;BME280;11218;48.886;9.426;2023-02-20T05:08:29;99073.78;;;6.78;86.72
22104;BME280;11218;48.886;9.426;2023-02-20T05:10:58;99074.59;;;6.79;85.84
22104;BME280;11218;48.886;9.426;2023-02-20T05:13:26;99070.28;;;6.78;87.01
22104;BME280;11218;48.886;9.426;2023-02-20T05:15:54;99066.97;;;6.76;86.23
22104;BME280;11218;48.886;9.426;2023-02-20T05:18:25;99081.78;;;6.78;86.10
22104;BME280;11218;48.886;9.426;2023-02-20T05:20:53;99089.81;;;6.78;85.82
22104;BME280;11218;48.886;9.426;2023-02-20T05:23:38;99082.81;;;6.77;86.39
22104;BME280;11218;48.886;9.426;2023-02-20T05:26:08;99088.16;;;6.77;85.96
22104;BME280;11218;48.886;9.426;2023-02-20T05:28:38;99090.22;;;6.75;86.09
22104;BME280;11218;48.886;9.426;2023-02-20T05:31:06;99080.97;;;6.78;85.83
22104;BME280;11218;48.886;9.426;2023-02-20T05:33:36;99084.66;;;6.77;86.52
22104;BME280;11218;48.886;9.426;2023-02-20T05:36:05;99079.09;;;6.72;86.32
22104;BME280;11218;48.886;9.426;2023-02-20T05:38:33;99086.91;;;6.73;86.54
22104;BME280;11218;48.886;9.426;2023-02-20T05:41:01;99088.78;;;6.73;86.03
22104;BME280;11218;48.886;9.426;2023-02-20T05:43:29;99083.81;;;6.70;86.19
22104;BME280;11218;48.886;9.426;2023-02-20T05:45:57;99081.75;;;6.65;85.35
22104;BME280;11218;48.886;9.426;2023-02-20T05:48:26;99087.13;;;6.65;85.63
22104;BME280;11218;48.886;9.426;2023-02-20T05:50:55;99074.13;;;6.62;85.22
22104;BME280;11218;48.886;9.426;2023-02-20T05:53:26;99080.72;;;6.59;85.26
22104;BME280;11218;48.886;9.426;2023-02-20T05:55:54;99083.19;;;6.61;86.15
22104;BME280;11218;48.886;9.426;2023-02-20T05:58:23;99076.00;;;6.62;85.43
22104;BME280;11218;48.886;9.426;2023-02-20T06:00:52;99071.81;;;6.52;85.66
22104;BME280;11218;48.886;9.426;2023-02-20T06:03:19;99083.53;;;6.51;86.00
22104;BME280;11218;48.886;9.426;2023-02-20T06:05:48;99072.41;;;6.48;85.36
22104;BME280;11218;48.886;9.426;2023-02-20T06:08:17;99077.16;;;6.52;86.49
22104;BME280;11218;48.886;9.426;2023-02-20T06:10:45;99086.22;;;6.51;85.04
22104;BME280;11218;48.886;9.426;2023-02-20T06:13:13;99092.59;;;6.50;85.86
22104;BME280;11218;48.886;9.426;2023-02-20T06:15:41;99084.53;;;6.44;86.21
22104;BME280;11218;48.886;9.426;2023-02-20T06:18:09;99103.06;;;6.45;85.42
22104;BME280;11218;48.886;9.426;2023-02-20T06:20:37;99098.94;;;6.43;86.42
22104;BME280;11218;48.886;9.426;2023-02-20T06:23:05;99083.06;;;6.41;85.94
22104;BME280;11218;48.886;9.426;2023-02-20T06:25:35;99091.28;;;6.40;86.35
22104;BME280;11218;48.886;9.426;2023-02-20T06:28:03;99089.84;;;6.37;85.71
22104;BME280;11218;48.886;9.426;2023-02-20T06:30:32;99093.34;;;6.38;85.45
22104;BME280;11218;48.886;9.426;2023-02-20T06:33:00;99103.84;;;6.39;85.89
22104;BME280;11218;48.886;9.426;2023-02-20T06:35:28;99090.66;;;6.38;85.46
22104;BME280;11218;48.886;9.426;2023-02-20T06:37:56;99094.16;;;6.38;86.06
22104;BME280;11218;48.886;9.426;2023-02-20T06:40:24;99101.56;;;6.36;85.96
22104;BME280;11218;48.886;9.426;2023-02-20T06:42:54;99105.88;;;6.37;86.21
22104;BME280;11218;48.886;9.426;2023-02-20T06:45:22;99100.53;;;6.37;85.68
22104;BME280;11218;48.886;9.426;2023-02-20T06:47:50;99096.00;;;6.38;85.37
22104;BME280;11218;48.886;9.426;2023-02-20T06:50:18;99108.56;;;6.37;85.30
22104;BME280;11218;48.886;9.426;2023-02-20T06:52:46;99100.97;;;6.41;85.17
22104;BME280;11218;48.886;9.426;2023-02-20T06:55:14;99110.88;;;6.47;85.29
22104;BME280;11218;48.886;9.426;2023-02-20T06:57:42;99120.31;;;6.43;85.98
22104;BME280;11218;48.886;9.426;2023-02-20T07:00:14;99112.72;;;6.46;86.09
22104;BME280;11218;48.886;9.426;2023-02-20T07:02:42;99116.44;;;6.45;85.64
22104;BME280;11218;48.886;9.426;2023-02-20T07:05:11;99111.50;;;6.49;85.86
22104;BME280;11218;48.886;9.426;2023-02-20T07:07:40;99117.88;;;6.48;85.09
22104;BME280;11218;48.886;9.426;2023-02-20T07:10:08;99122.78;;;6.44;85.63
22104;BME280;11218;48.886;9.426;2023-02-20T07:12:36;99120.75;;;6.46;85.35
22104;BME280;11218;48.886;9.426;2023-02-20T07:15:07;99129.22;;;6.50;85.09
22104;BME280;11218;48.886;9.426;2023-02-20T07:17:36;99132.72;;;6.50;84.65
22104;BME280;11218;48.886;9.426;2023-02-20T07:20:04;99130.69;;;6.59;84.22
22104;BME280;11218;48.886;9.426;2023-02-20T07:22:33;99125.94;;;6.54;85.37
22104;BME280;11218;48.886;9.426;2023-02-20T07:25:01;99134.59;;;6.56;84.65
22104;BME280;11218;48.886;9.426;2023-02-20T07:27:29;99128.22;;;6.57;85.60
22104;BME280;11218;48.886;9.426;2023-02-20T07:29:57;99131.53;;;6.59;84.91
22104;BME280;11218;48.886;9.426;2023-02-20T07:32:26;99130.94;;;6.64;85.03
22104;BME280;11218;48.886;9.426;2023-02-20T07:34:56;99130.16;;;6.77;84.90
22104;BME280;11218;48.886;9.426;2023-02-20T07:37:32;99128.94;;;6.79;84.47
22104;BME280;11218;48.886;9.426;2023-02-20T07:40:00;99130.63;;;6.87;84.01
22104;BME280;11218;48.886;9.426;2023-02-20T07:42:28;99126.75;;;6.96;84.22
22104;BME280;11218;48.886;9.426;2023-02-20T07:44:58;99113.41;;;7.03;83.61
22104;BME280;11218;48.886;9.426;2023-02-20T07:47:26;99112.41;;;7.10;83.39
22104;BME280;11218;48.886;9.426;2023-02-20T07:49:55;99112.41;;;7.17;83.39
22104;BME280;11218;48.886;9.426;2023-02-20T07:52:23;99113.06;;;7.25;83.15
22104;BME280;11218;48.886;9.426;2023-02-20T07:54:52;99112.47;;;7.37;81.97
22104;BME280;11218;48.886;9.426;2023-02-20T07:57:20;99114.53;;;7.48;82.53
22104;BME280;11218;48.886;9.426;2023-02-20T07:59:48;99120.13;;;7.59;81.17
22104;BME280;11218;48.886;9.426;2023-02-20T08:02:16;99102.81;;;7.69;80.33
22104;BME280;11218;48.886;9.426;2023-02-20T08:04:44;99100.78;;;7.77;80.32
22104;BME280;11218;48.886;9.426;2023-02-20T08:07:14;99105.72;;;7.87;80.08
22104;BME280;11218;48.886;9.426;2023-02-20T08:09:41;99108.19;;;7.95;79.80
22104;BME280;11218;48.886;9.426;2023-02-20T08:12:10;99105.53;;;8.08;79.30
22104;BME280;11218;48.886;9.426;2023-02-20T08:14:41;99104.25;;;8.17;79.51
22104;BME280;11218;48.886;9.426;2023-02-20T08:17:09;99093.09;;;8.27;79.04
22104;BME280;11218;48.886;9.426;2023-02-20T08:19:37;99095.56;;;8.42;77.30
22104;BME280;11218;48.886;9.426;2023-02-20T08:22:05;99100.72;;;8.50;77.36
22104;BME280;11218;48.886;9.426;2023-02-20T08:24:34;99093.88;;;8.61;77.18
22104;BME280;11218;48.886;9.426;2023-02-20T08:27:03;99096.34;;;8.69;76.84
22104;BME280;11218;48.886;9.426;2023-02-20T08:29:31;99088.88;;;8.77;76.75
22104;BME280;11218;48.886;9.426;2023-02-20T08:32:00;99086.16;;;8.84;76.58
22104;BME280;11218;48.886;9.426;2023-02-20T08:34:28;99091.13;;;8.87;76.49
22104;BME280;11218;48.886;9.426;2023-02-20T08:36:56;99089.03;;;8.89;76.34
22104;BME280;11218;48.886;9.426;2023-02-20T08:39:24;99096.22;;;8.95;76.33
22104;BME280;11218;48.886;9.426;2023-02-20T08:41:53;99094.13;;;9.04;75.59
22104;BME280;11218;48.886;9.426;2023-02-20T08:44:22;99091.78;;;9.14;74.53
22104;BME280;11218;48.886;9.426;2023-02-20T08:46:50;99083.66;;;9.27;73.20
22104;BME280;11218;48.886;9.426;2023-02-20T08:49:19;99088.19;;;9.33;72.93
22104;BME280;11218;48.886;9.426;2023-02-20T08:51:52;99085.00;;;9.49;72.44
22104;BME280;11218;48.886;9.426;2023-02-20T08:54:21;99075.84;;;9.57;72.59
22104;BME280;11218;48.886;9.426;2023-02-20T08:56:49;99082.56;;;9.66;71.80
22104;BME280;11218;48.886;9.426;2023-02-20T08:59:19;99081.47;;;9.74;71.06
22104;BME280;11218;48.886;9.426;2023-02-20T09:01:47;99079.34;;;9.82;71.17
22104;BME280;11218;48.886;9.426;2023-02-20T09:04:15;99076.16;;;9.92;70.79
22104;BME280;11218;48.886;9.426;2023-02-20T09:06:43;99067.66;;;9.95;70.55
22104;BME280;11218;48.886;9.426;2023-02-20T09:09:11;99074.34;;;10.11;70.78
22104;BME280;11218;48.886;9.426;2023-02-20T09:11:39;99070.31;;;10.27;69.72
22104;BME280;11218;48.886;9.426;2023-02-20T09:14:08;99068.97;;;10.36;68.75
22104;BME280;11218;48.886;9.426;2023-02-20T09:16:37;99063.88;;;10.46;68.54
22104;BME280;11218;48.886;9.426;2023-02-20T09:19:08;99068.50;;;10.57;68.41
22104;BME280;11218;48.886;9.426;2023-02-20T09:21:36;99059.09;;;10.66;67.47
22104;BME280;11218;48.886;9.426;2023-02-20T09:24:05;99065.38;;;10.78;67.75
22104;BME280;11218;48.886;9.426;2023-02-20T09:26:33;99055.25;;;10.92;67.37
22104;BME280;11218;48.886;9.426;2023-02-20T09:29:01;99040.19;;;11.03;66.67
22104;BME280;11218;48.886;9.426;2023-02-20T09:31:30;99043.50;;;11.16;66.77
22104;BME280;11218;48.886;9.426;2023-02-20T09:33:59;99047.19;;;11.34;65.31
22104;BME280;11218;48.886;9.426;2023-02-20T09:36:27;99044.53;;;11.45;62.74
22104;BME280;11218;48.886;9.426;2023-02-20T09:38:55;99039.16;;;11.45;63.53
22104;BME280;11218;48.886;9.426;2023-02-20T09:41:31;99037.41;;;11.51;63.37
22104;BME280;11218;48.886;9.426;2023-02-20T09:44:11;99038.13;;;11.58;62.68
22104;BME280;11218;48.886;9.426;2023-02-20T09:46:43;99036.94;;;11.54;62.09
22104;BME280;11218;48.886;9.426;2023-02-20T09:49:15;99029.56;;;11.61;62.09
22104;BME280;11218;48.886;9.426;2023-02-20T09:51:50;99031.19;;;11.50;61.64
22104;BME280;11218;48.886;9.426;2023-02-20T09:54:21;99025.81;;;11.62;62.89
22104;BME280;11218;48.886;9.426;2023-02-20T09:56:53;99018.72;;;11.79;61.42
22104;BME280;11218;48.886;9.426;2023-02-20T09:59:24;99027.41;;;11.81;62.37
22104;BME280;11218;48.886;9.426;2023-02-20T10:01:57;99030.13;;;11.81;63.43
22104;BME280;11218;48.886;9.426;2023-02-20T10:04:32;99033.34;;;11.72;63.02
22104;BME280;11218;48.886;9.426;2023-02-20T10:07:14;99020.31;;;11.69;63.46
22104;BME280;11218;48.886;9.426;2023-02-20T10:09:43;99017.28;;;11.65;62.86
22104;BME280;11218;48.886;9.426;2023-02-20T10:12:18;99013.53;;;11.66;62.60
22104;BME280;11218;48.886;9.426;2023-02-20T10:15:02;99011.88;;;11.65;62.76
22104;BME280;11218;48.886;9.426;2023-02-20T10:17:37;99014.56;;;11.65;62.94
22104;BME280;11218;48.886;9.426;2023-02-20T10:20:12;99017.69;;;11.80;61.71
22104;BME280;11218;48.886;9.426;2023-02-20T10:22:49;99019.69;;;11.85;61.40
22104;BME280;11218;48.886;9.426;2023-02-20T10:25:24;99016.38;;;11.95;62.00
22104;BME280;11218;48.886;9.426;2023-02-20T10:27:59;99017.06;;;12.02;60.89
22104;BME280;11218;48.886;9.426;2023-02-20T10:30:32;99019.41;;;11.98;60.07
22104;BME280;11218;48.886;9.426;2023-02-20T10:33:14;99012.50;;;12.02;60.88
22104;BME280;11218;48.886;9.426;2023-02-20T10:35:50;99001.81;;;12.19;61.66
22104;BME280;11218;48.886;9.426;2023-02-20T10:38:23;99008.72;;;12.27;60.61
22104;BME280;11218;48.886;9.426;2023-02-20T10:41:03;99003.47;;;12.20;59.56
22104;BME280;11218;48.886;9.426;2023-02-20T10:43:37;99007.78;;;12.21;59.19
22104;BME280;11218;48.886;9.426;2023-02-20T10:46:11;99010.63;;;12.26;60.24
22104;BME280;11218;48.886;9.426;2023-02-20T10:48:43;99008.38;;;12.35;59.58
22104;BME280;11218;48.886;9.426;2023-02-20T10:51:19;99005.19;;;12.49;60.23
22104;BME280;11218;48.886;9.426;2023-02-20T10:53:58;99007.53;;;12.46;59.31
22104;BME280;11218;48.886;9.426;2023-02-20T10:56:30;99000.94;;;12.54;59.65
22104;BME280;11218;48.886;9.426;2023-02-20T10:59:06;99006.53;;;12.64;60.19
22104;BME280;11218;48.886;9.426;2023-02-20T11:01:39;98987.97;;;12.67;59.76
22104;BME280;11218;48.886;9.426;2023-02-20T11:04:12;98989.31;;;12.81;59.03
22104;BME280;11218;48.886;9.426;2023-02-20T11:06:45;98984.31;;;12.73;57.64
22104;BME280;11218;48.886;9.426;2023-02-20T11:09:16;98985.13;;;12.74;58.49
22104;BME280;11218;48.886;9.426;2023-02-20T11:11:46;98973.00;;;12.76;57.99
22104;BME280;11218;48.886;9.426;2023-02-20T11:14:17;98980.25;;;12.88;58.93
22104;BME280;11218;48.886;9.426;2023-02-20T11:17:02;98979.19;;;12.89;58.02
22104;BME280;11218;48.886;9.426;2023-02-20T11:19:39;98976.50;;;12.89;57.42
22104;BME280;11218;48.886;9.426;2023-02-20T11:22:10;98963.50;;;13.02;57.68
22104;BME280;11218;48.886;9.426;2023-02-20T11:24:40;98963.00;;;13.17;58.47
22104;BME280;11218;48.886;9.426;2023-02-20T11:27:12;98948.19;;;13.08;56.91
22104;BME280;11218;48.886;9.426;2023-02-20T11:29:47;98945.34;;;13.14;58.07
22104;BME280;11218;48.886;9.426;2023-02-20T11:32:32;98939.75;;;13.04;58.53
22104;BME280;11218;48.886;9.426;2023-02-20T11:35:22;98945.56;;;12.96;58.59
22104;BME280;11218;48.886;9.426;2023-02-20T11:38:26;98938.31;;;12.85;58.25
22104;BME280;11218;48.886;9.426;2023-02-20T11:41:12;98938.69;;;13.05;58.04
22104;BME280;11218;48.886;9.426;2023-02-20T11:43:46;98928.06;;;13.15;57.54
22104;BME280;11218;48.886;9.426;2023-02-20T11:46:26;98932.38;;;13.28;57.50
22104;BME280;11218;48.886;9.426;2023-02-20T11:49:00;98928.16;;;13.37;56.47
22104;BME280;11218;48.886;9.426;2023-02-20T11:51:33;98929.16;;;13.48;57.02
22104;BME280;11218;48.886;9.426;2023-02-20T11:54:08;98918.00;;;13.61;56.27
22104;BME280;11218;48.886;9.426;2023-02-20T11:56:37;98916.59;;;13.75;55.08
22104;BME280;11218;48.886;9.426;2023-02-20T11:59:27;98915.44;;;13.71;55.21
22104;BME280;11218;48.886;9.426;2023-02-20T12:02:19;98911.75;;;13.77;54.71
22104;BME280;11218;48.886;9.426;2023-02-20T12:05:07;98903.31;;;13.74;54.63
22104;BME280;11218;48.886;9.426;2023-02-20T12:07:38;98901.66;;;13.73;55.14
22104;BME280;11218;48.886;9.426;2023-02-20T12:10:19;98896.97;;;13.85;54.84
22104;BME280;11218;48.886;9.426;2023-02-20T12:12:49;98892.94;;;13.88;54.38
22104;BME280;11218;48.886;9.426;2023-02-20T12:15:19;98879.91;;;13.85;54.61
22104;BME280;11218;48.886;9.426;2023-02-20T12:18:14;98875.63;;;13.89;54.32
22104;BME280;11218;48.886;9.426;2023-02-20T12:20:48;98868.78;;;14.03;54.56
22104;BME280;11218;48.886;9.426;2023-02-20T12:23:25;98867.38;;;14.22;53.44
22104;BME280;11218;48.886;9.426;2023-02-20T12:26:06;98858.09;;;14.40;53.66
22104;BME280;11218;48.886;9.426;2023-02-20T12:28:47;98847.47;;;14.55;53.38
22104;BME280;11218;48.886;9.426;2023-02-20T12:31:27;98849.66;;;14.58;53.61
22104;BME280;11218;48.886;9.426;2023-02-20T12:34:18;98843.84;;;14.71;52.11
22104;BME280;11218;48.886;9.426;2023-02-20T12:36:52;98832.13;;;14.66;51.81
22104;BME280;11218;48.886;9.426;2023-02-20T12:39:31;98825.94;;;14.70;51.88
22104;BME280;11218;48.886;9.426;2023-02-20T12:42:12;98826.59;;;14.83;51.92
22104;BME280;11218;48.886;9.426;2023-02-20T12:44:59;98812.22;;;14.87;52.10
22104;BME280;11218;48.886;9.426;2023-02-20T12:47:31;98809.34;;;14.99;51.75
22104;BME280;11218;48.886;9.426;2023-02-20T12:50:10;98815.03;;;14.97;51.92
22104;BME280;11218;48.886;9.426;2023-02-20T12:55:39;98796.56;;;14.94;52.49
22104;BME280;11218;48.886;9.426;2023-02-20T12:58:20;98794.97;;;14.98;51.44
22104;BME280;11218;48.886;9.426;2023-02-20T13:00:55;98794.38;;;14.91;49.89
22104;BME280;11218;48.886;9.426;2023-02-20T13:03:38;98782.50;;;14.97;50.69
22104;BME280;11218;48.886;9.426;2023-02-20T13:06:10;98778.19;;;15.01;50.42
22104;BME280;11218;48.886;9.426;2023-02-20T13:08:48;98776.63;;;15.10;50.88
22104;BME280;11218;48.886;9.426;2023-02-20T13:11:23;98771.31;;;15.26;50.01
22104;BME280;11218;48.886;9.426;2023-02-20T13:14:03;98774.88;;;15.31;49.68
22104;BME280;11218;48.886;9.426;2023-02-20T13:16:38;98766.47;;;15.33;49.40
22104;BME280;11218;48.886;9.426;2023-02-20T13:19:16;98763.22;;;15.36;49.26
22104;BME280;11218;48.886;9.426;2023-02-20T13:21:48;98762.63;;;15.24;49.37
22104;BME280;11218;48.886;9.426;2023-02-20T13:24:30;98762.09;;;15.27;50.17
22104;BME280;11218;48.886;9.426;2023-02-20T13:27:01;98751.53;;;15.30;50.73
22104;BME280;11218;48.886;9.426;2023-02-20T13:29:37;98750.22;;;15.38;50.50
22104;BME280;11218;48.886;9.426;2023-02-20T13:32:21;98739.28;;;15.23;50.82
22104;BME280;11218;48.886;9.426;2023-02-20T13:34:51;98740.88;;;15.19;50.70
22104;BME280;11218;48.886;9.426;2023-02-20T13:37:53;98733.31;;;15.26;51.16
22104;BME280;11218;48.886;9.426;2023-02-20T13:40:35;98729.53;;;15.27;50.71
22104;BME280;11218;48.886;9.426;2023-02-20T13:43:30;98715.16;;;15.26;50.75
22104;BME280;11218;48.886;9.426;2023-02-20T13:46:19;98703.75;;;15.24;51.20